sensor_id;sensor_type;location;lat;lon;timestamp;P1;durP1;ratioP1;P2;durP2;ratioP2
14116;SDS011;7137;51.436;6.544;2023-06-26T00:02:50;8.00;;;6.33;;
14116;SDS011;7137;51.436;6.544;2023-06-26T00:05:52;7.00;;;6.27;;
14116;SDS011;7137;51.436;6.544;2023-06-26T00:08:54;7.57;;;6.53;;
14116;SDS011;7137;51.436;6.544;2023-06-26T00:11:58;7.63;;;6.50;;
14116;SDS011;7137;51.436;6.544;2023-06-26T00:15:00;8.23;;;6.70;;
14116;SDS011;7137;51.436;6.544;2023-06-26T00:18:02;7.50;;;6.53;;
14116;SDS011;7137;51.436;6.544;2023-06-26T00:21:04;9.03;;;6.50;;
14116;SDS011;7137;51.436;6.544;2023-06-26T00:24:05;7.10;;;6.20;;
14116;SDS011;7137;51.436;6.544;2023-06-26T00:27:08;7.90;;;6.60;;
14116;SDS011;7137;51.436;6.544;2023-06-26T00:30:10;9.53;;;7.03;;
14116;SDS011;7137;51.436;6.544;2023-06-26T00:33:13;7.37;;;6.27;;
14116;SDS011;7137;51.436;6.544;2023-06-26T00:36:14;8.23;;;6.90;;
14116;SDS011;7137;51.436;6.544;2023-06-26T00:39:16;8.37;;;6.70;;
14116;SDS011;7137;51.436;6.544;2023-06-26T00:42:18;7.13;;;6.17;;
14116;SDS011;7137;51.436;6.544;2023-06-26T00:45:20;9.07;;;7.17;;
14116;SDS011;7137;51.436;6.544;2023-06-26T00:48:21;8.30;;;6.40;;
14116;SDS011;7137;51.436;6.544;2023-06-26T00:51:23;7.70;;;6.83;;
14116;SDS011;7137;51.436;6.544;2023-06-26T00:54:25;8.73;;;7.30;;
14116;SDS011;7137;51.436;6.544;2023-06-26T00:57:29;7.63;;;6.80;;
14116;SDS011;7137;51.436;6.544;2023-06-26T01:00:31;8.50;;;7.00;;
14116;SDS011;7137;51.436;6.544;2023-06-26T01:03:33;8.20;;;7.03;;
14116;SDS011;7137;51.436;6.544;2023-06-26T01:06:34;8.83;;;6.90;;
14116;SDS011;7137;51.436;6.544;2023-06-26T01:09:36;8.57;;;7.43;;
14116;SDS011;7137;51.436;6.544;2023-06-26T01:12:39;8.93;;;6.90;;
14116;SDS011;7137;51.436;6.544;2023-06-26T01:15:41;8.87;;;6.97;;
14116;SDS011;7137;51.436;6.544;2023-06-26T01:18:43;8.47;;;7.57;;
14116;SDS011;7137;51.436;6.544;2023-06-26T01:21:45;8.17;;;7.33;;
14116;SDS011;7137;51.436;6.544;2023-06-26T01:24:53;8.30;;;7.40;;
14116;SDS011;7137;51.436;6.544;2023-06-26T01:28:03;8.63;;;7.60;;
14116;SDS011;7137;51.436;6.544;2023-06-26T01:31:05;9.30;;;7.67;;
14116;SDS011;7137;51.436;6.544;2023-06-26T01:34:08;8.87;;;7.20;;
14116;SDS011;7137;51.436;6.544;2023-06-26T01:37:10;10.73;;;7.33;;
14116;SDS011;7137;51.436;6.544;2023-06-26T01:40:11;9.50;;;7.50;;
14116;SDS011;7137;51.436;6.544;2023-06-26T01:43:18;9.87;;;7.20;;
14116;SDS011;7137;51.436;6.544;2023-06-26T01:46:27;10.67;;;7.00;;
14116;SDS011;7137;51.436;6.544;2023-06-26T01:49:40;8.77;;;7.53;;
14116;SDS011;7137;51.436;6.544;2023-06-26T01:52:48;9.90;;;7.23;;
14116;SDS011;7137;51.436;6.544;2023-06-26T01:55:55;9.63;;;7.63;;
14116;SDS011;7137;51.436;6.544;2023-06-26T01:59:03;9.50;;;6.80;;
14116;SDS011;7137;51.436;6.544;2023-06-26T02:02:07;8.20;;;7.00;;
14116;SDS011;7137;51.436;6.544;2023-06-26T02:05:08;10.40;;;7.17;;
14116;SDS011;7137;51.436;6.544;2023-06-26T02:08:10;8.23;;;6.93;;
14116;SDS011;7137;51.436;6.544;2023-06-26T02:11:16;8.30;;;7.00;;
14116;SDS011;7137;51.436;6.544;2023-06-26T02:14:19;8.73;;;7.00;;
14116;SDS011;7137;51.436;6.544;2023-06-26T02:17:20;8.00;;;7.10;;
14116;SDS011;7137;51.436;6.544;2023-06-26T02:20:22;8.83;;;7.00;;
14116;SDS011;7137;51.436;6.544;2023-06-26T02:23:24;9.77;;;7.33;;
14116;SDS011;7137;51.436;6.544;2023-06-26T02:26:25;8.77;;;7.07;;
14116;SDS011;7137;51.436;6.544;2023-06-26T02:29:28;8.43;;;7.13;;
14116;SDS011;7137;51.436;6.544;2023-06-26T02:32:29;7.97;;;6.93;;
14116;SDS011;7137;51.436;6.544;2023-06-26T02:35:31;8.40;;;7.43;;
14116;SDS011;7137;51.436;6.544;2023-06-26T02:38:33;7.80;;;7.00;;
14116;SDS011;7137;51.436;6.544;2023-06-26T02:41:35;8.57;;;7.67;;
14116;SDS011;7137;51.436;6.544;2023-06-26T02:44:38;9.07;;;7.60;;
14116;SDS011;7137;51.436;6.544;2023-06-26T02:47:39;9.23;;;7.47;;
14116;SDS011;7137;51.436;6.544;2023-06-26T02:50:41;9.37;;;7.83;;
14116;SDS011;7137;51.436;6.544;2023-06-26T02:53:45;8.87;;;7.70;;
14116;SDS011;7137;51.436;6.544;2023-06-26T02:56:47;10.50;;;6.93;;
14116;SDS011;7137;51.436;6.544;2023-06-26T02:59:50;9.00;;;7.00;;
14116;SDS011;7137;51.436;6.544;2023-06-26T03:02:52;9.23;;;7.50;;
14116;SDS011;7137;51.436;6.544;2023-06-26T03:05:53;8.23;;;6.77;;
14116;SDS011;7137;51.436;6.544;2023-06-26T03:08:55;7.77;;;6.90;;
14116;SDS011;7137;51.436;6.544;2023-06-26T03:11:56;8.20;;;7.07;;
14116;SDS011;7137;51.436;6.544;2023-06-26T03:14:59;8.23;;;7.30;;
14116;SDS011;7137;51.436;6.544;2023-06-26T03:18:01;7.53;;;6.63;;
14116;SDS011;7137;51.436;6.544;2023-06-26T03:21:02;7.83;;;6.93;;
14116;SDS011;7137;51.436;6.544;2023-06-26T03:24:05;10.13;;;7.23;;
14116;SDS011;7137;51.436;6.544;2023-06-26T03:27:07;7.70;;;6.53;;
14116;SDS011;7137;51.436;6.544;2023-06-26T03:30:12;8.17;;;6.40;;
14116;SDS011;7137;51.436;6.544;2023-06-26T03:33:14;8.07;;;6.10;;
14116;SDS011;7137;51.436;6.544;2023-06-26T03:36:15;7.87;;;6.13;;
14116;SDS011;7137;51.436;6.544;2023-06-26T03:39:17;7.93;;;5.60;;
14116;SDS011;7137;51.436;6.544;2023-06-26T03:42:18;7.60;;;6.13;;
14116;SDS011;7137;51.436;6.544;2023-06-26T03:45:21;7.27;;;5.40;;
14116;SDS011;7137;51.436;6.544;2023-06-26T03:48:23;6.70;;;5.50;;
14116;SDS011;7137;51.436;6.544;2023-06-26T03:51:24;7.13;;;5.00;;
14116;SDS011;7137;51.436;6.544;2023-06-26T03:54:26;6.87;;;5.23;;
14116;SDS011;7137;51.436;6.544;2023-06-26T03:57:28;6.37;;;4.40;;
14116;SDS011;7137;51.436;6.544;2023-06-26T04:00:30;7.83;;;5.03;;
14116;SDS011;7137;51.436;6.544;2023-06-26T04:03:32;8.53;;;4.83;;
14116;SDS011;7137;51.436;6.544;2023-06-26T04:06:34;7.07;;;4.50;;
14116;SDS011;7137;51.436;6.544;2023-06-26T04:09:35;9.37;;;5.07;;
14116;SDS011;7137;51.436;6.544;2023-06-26T04:12:37;6.97;;;4.60;;
14116;SDS011;7137;51.436;6.544;2023-06-26T04:15:40;6.90;;;4.93;;
14116;SDS011;7137;51.436;6.544;2023-06-26T04:18:41;7.40;;;4.67;;
14116;SDS011;7137;51.436;6.544;2023-06-26T04:21:43;6.73;;;4.47;;
14116;SDS011;7137;51.436;6.544;2023-06-26T04:24:45;6.83;;;4.90;;
14116;SDS011;7137;51.436;6.544;2023-06-26T04:27:47;6.93;;;5.40;;
14116;SDS011;7137;51.436;6.544;2023-06-26T04:30:50;7.53;;;5.43;;
14116;SDS011;7137;51.436;6.544;2023-06-26T04:33:51;9.27;;;6.27;;
14116;SDS011;7137;51.436;6.544;2023-06-26T04:36:54;7.40;;;5.83;;
14116;SDS011;7137;51.436;6.544;2023-06-26T04:39:56;7.50;;;5.90;;
14116;SDS011;7137;51.436;6.544;2023-06-26T04:42:57;7.53;;;5.57;;
14116;SDS011;7137;51.436;6.544;2023-06-26T04:46:01;6.77;;;5.60;;
14116;SDS011;7137;51.436;6.544;2023-06-26T04:49:03;8.50;;;5.40;;
14116;SDS011;7137;51.436;6.544;2023-06-26T04:52:05;8.30;;;5.93;;
14116;SDS011;7137;51.436;6.544;2023-06-26T04:55:06;6.70;;;5.40;;
14116;SDS011;7137;51.436;6.544;2023-06-26T04:58:08;6.87;;;5.30;;
14116;SDS011;7137;51.436;6.544;2023-06-26T05:01:11;8.17;;;5.83;;
14116;SDS011;7137;51.436;6.544;2023-06-26T05:04:15;7.87;;;5.33;;
14116;SDS011;7137;51.436;6.544;2023-06-26T05:07:17;7.60;;;4.90;;
14116;SDS011;7137;51.436;6.544;2023-06-26T05:10:19;8.13;;;5.33;;
14116;SDS011;7137;51.436;6.544;2023-06-26T05:13:21;7.37;;;4.93;;
14116;SDS011;7137;51.436;6.544;2023-06-26T05:16:24;7.73;;;4.50;;
14116;SDS011;7137;51.436;6.544;2023-06-26T05:19:25;9.37;;;4.53;;
14116;SDS011;7137;51.436;6.544;2023-06-26T05:22:27;6.53;;;5.00;;
14116;SDS011;7137;51.436;6.544;2023-06-26T05:25:29;9.93;;;5.07;;
14116;SDS011;7137;51.436;6.544;2023-06-26T05:28:32;8.97;;;4.97;;
14116;SDS011;7137;51.436;6.544;2023-06-26T05:31:37;8.37;;;4.50;;
14116;SDS011;7137;51.436;6.544;2023-06-26T05:34:42;10.70;;;5.40;;
14116;SDS011;7137;51.436;6.544;2023-06-26T05:37:48;8.10;;;4.70;;
14116;SDS011;7137;51.436;6.544;2023-06-26T05:40:51;9.33;;;5.13;;
14116;SDS011;7137;51.436;6.544;2023-06-26T05:43:53;8.27;;;4.70;;
14116;SDS011;7137;51.436;6.544;2023-06-26T05:46:56;8.93;;;4.87;;
14116;SDS011;7137;51.436;6.544;2023-06-26T05:49:58;9.90;;;5.37;;
14116;SDS011;7137;51.436;6.544;2023-06-26T05:53:00;8.03;;;4.93;;
14116;SDS011;7137;51.436;6.544;2023-06-26T05:56:03;7.10;;;4.40;;
14116;SDS011;7137;51.436;6.544;2023-06-26T05:59:05;8.63;;;4.80;;
14116;SDS011;7137;51.436;6.544;2023-06-26T06:02:09;8.93;;;4.83;;
14116;SDS011;7137;51.436;6.544;2023-06-26T06:05:11;8.63;;;4.73;;
14116;SDS011;7137;51.436;6.544;2023-06-26T06:08:12;22.57;;;5.70;;
14116;SDS011;7137;51.436;6.544;2023-06-26T06:11:14;11.23;;;4.70;;
14116;SDS011;7137;51.436;6.544;2023-06-26T06:14:15;9.90;;;4.97;;
14116;SDS011;7137;51.436;6.544;2023-06-26T06:17:18;10.90;;;4.67;;
14116;SDS011;7137;51.436;6.544;2023-06-26T06:20:20;8.37;;;4.50;;
14116;SDS011;7137;51.436;6.544;2023-06-26T06:23:22;10.03;;;4.83;;
14116;SDS011;7137;51.436;6.544;2023-06-26T06:26:24;9.30;;;4.80;;
14116;SDS011;7137;51.436;6.544;2023-06-26T06:29:25;8.13;;;4.43;;
14116;SDS011;7137;51.436;6.544;2023-06-26T06:32:28;10.73;;;4.63;;
14116;SDS011;7137;51.436;6.544;2023-06-26T06:35:30;10.17;;;4.70;;
14116;SDS011;7137;51.436;6.544;2023-06-26T06:38:31;9.27;;;4.30;;
14116;SDS011;7137;51.436;6.544;2023-06-26T06:41:33;12.00;;;7.90;;
14116;SDS011;7137;51.436;6.544;2023-06-26T06:44:34;17.07;;;5.63;;
14116;SDS011;7137;51.436;6.544;2023-06-26T06:47:37;8.20;;;4.83;;
14116;SDS011;7137;51.436;6.544;2023-06-26T06:50:39;12.80;;;5.50;;
14116;SDS011;7137;51.436;6.544;2023-06-26T06:53:40;9.10;;;5.03;;
14116;SDS011;7137;51.436;6.544;2023-06-26T06:56:42;12.20;;;5.13;;
14116;SDS011;7137;51.436;6.544;2023-06-26T06:59:44;10.17;;;5.07;;
14116;SDS011;7137;51.436;6.544;2023-06-26T07:02:46;11.27;;;4.77;;
14116;SDS011;7137;51.436;6.544;2023-06-26T07:05:48;10.87;;;5.10;;
14116;SDS011;7137;51.436;6.544;2023-06-26T07:08:50;10.47;;;5.57;;
14116;SDS011;7137;51.436;6.544;2023-06-26T07:11:51;10.93;;;5.37;;
14116;SDS011;7137;51.436;6.544;2023-06-26T07:14:53;10.33;;;5.03;;
14116;SDS011;7137;51.436;6.544;2023-06-26T07:17:56;10.10;;;5.10;;
14116;SDS011;7137;51.436;6.544;2023-06-26T07:20:58;10.43;;;5.40;;
14116;SDS011;7137;51.436;6.544;2023-06-26T07:23:59;10.67;;;5.03;;
14116;SDS011;7137;51.436;6.544;2023-06-26T07:27:01;12.27;;;4.37;;
14116;SDS011;7137;51.436;6.544;2023-06-26T07:30:02;9.57;;;4.57;;
14116;SDS011;7137;51.436;6.544;2023-06-26T07:33:06;9.37;;;4.40;;
14116;SDS011;7137;51.436;6.544;2023-06-26T07:36:07;10.40;;;4.60;;
14116;SDS011;7137;51.436;6.544;2023-06-26T07:39:09;11.27;;;4.20;;
14116;SDS011;7137;51.436;6.544;2023-06-26T07:42:10;9.47;;;4.00;;
14116;SDS011;7137;51.436;6.544;2023-06-26T07:45:12;9.77;;;4.67;;
14116;SDS011;7137;51.436;6.544;2023-06-26T07:48:15;11.43;;;3.93;;
14116;SDS011;7137;51.436;6.544;2023-06-26T07:51:16;7.80;;;3.50;;
14116;SDS011;7137;51.436;6.544;2023-06-26T07:54:18;9.40;;;4.00;;
14116;SDS011;7137;51.436;6.544;2023-06-26T07:57:20;8.40;;;3.97;;
14116;SDS011;7137;51.436;6.544;2023-06-26T08:00:21;10.00;;;3.77;;
14116;SDS011;7137;51.436;6.544;2023-06-26T08:03:24;10.07;;;4.07;;
14116;SDS011;7137;51.436;6.544;2023-06-26T08:06:26;13.33;;;4.67;;
14116;SDS011;7137;51.436;6.544;2023-06-26T08:09:28;10.23;;;4.30;;
14116;SDS011;7137;51.436;6.544;2023-06-26T08:12:30;11.57;;;4.10;;
14116;SDS011;7137;51.436;6.544;2023-06-26T08:15:32;9.57;;;3.87;;
14116;SDS011;7137;51.436;6.544;2023-06-26T08:18:35;7.10;;;3.60;;
14116;SDS011;7137;51.436;6.544;2023-06-26T08:21:36;10.37;;;3.87;;
14116;SDS011;7137;51.436;6.544;2023-06-26T08:24:38;10.53;;;3.93;;
14116;SDS011;7137;51.436;6.544;2023-06-26T08:27:40;10.47;;;3.83;;
14116;SDS011;7137;51.436;6.544;2023-06-26T08:30:41;9.27;;;4.10;;
14116;SDS011;7137;51.436;6.544;2023-06-26T08:33:44;9.10;;;3.70;;
14116;SDS011;7137;51.436;6.544;2023-06-26T08:36:46;8.47;;;3.77;;
14116;SDS011;7137;51.436;6.544;2023-06-26T08:39:48;9.57;;;3.93;;
14116;SDS011;7137;51.436;6.544;2023-06-26T08:42:49;7.47;;;3.60;;
14116;SDS011;7137;51.436;6.544;2023-06-26T08:45:54;7.57;;;3.43;;
14116;SDS011;7137;51.436;6.544;2023-06-26T08:48:58;8.70;;;3.50;;
14116;SDS011;7137;51.436;6.544;2023-06-26T08:52:04;8.93;;;3.63;;
14116;SDS011;7137;51.436;6.544;2023-06-26T08:55:11;9.10;;;3.60;;
14116;SDS011;7137;51.436;6.544;2023-06-26T08:58:16;10.27;;;3.73;;
14116;SDS011;7137;51.436;6.544;2023-06-26T09:01:17;7.70;;;3.70;;
14116;SDS011;7137;51.436;6.544;2023-06-26T09:04:21;9.07;;;3.40;;
14116;SDS011;7137;51.436;6.544;2023-06-26T09:07:23;7.50;;;3.43;;
14116;SDS011;7137;51.436;6.544;2023-06-26T09:10:24;7.23;;;3.27;;
14116;SDS011;7137;51.436;6.544;2023-06-26T09:13:27;6.57;;;3.37;;
14116;SDS011;7137;51.436;6.544;2023-06-26T09:16:29;7.70;;;3.50;;
14116;SDS011;7137;51.436;6.544;2023-06-26T09:19:32;8.03;;;3.30;;
14116;SDS011;7137;51.436;6.544;2023-06-26T09:22:38;7.50;;;3.10;;
14116;SDS011;7137;51.436;6.544;2023-06-26T09:25:42;7.57;;;3.27;;
14116;SDS011;7137;51.436;6.544;2023-06-26T09:28:44;7.73;;;3.50;;
14116;SDS011;7137;51.436;6.544;2023-06-26T09:31:46;10.60;;;3.80;;
14116;SDS011;7137;51.436;6.544;2023-06-26T09:34:51;7.80;;;3.53;;
14116;SDS011;7137;51.436;6.544;2023-06-26T09:37:53;6.30;;;3.20;;
14116;SDS011;7137;51.436;6.544;2023-06-26T09:40:56;8.40;;;3.33;;
14116;SDS011;7137;51.436;6.544;2023-06-26T09:44:00;8.33;;;3.33;;
14116;SDS011;7137;51.436;6.544;2023-06-26T09:47:03;5.90;;;2.80;;
14116;SDS011;7137;51.436;6.544;2023-06-26T09:50:08;8.37;;;3.17;;
14116;SDS011;7137;51.436;6.544;2023-06-26T09:53:22;7.20;;;3.00;;
14116;SDS011;7137;51.436;6.544;2023-06-26T09:56:23;8.23;;;3.50;;
14116;SDS011;7137;51.436;6.544;2023-06-26T09:59:25;7.47;;;2.80;;
14116;SDS011;7137;51.436;6.544;2023-06-26T10:02:27;5.90;;;2.70;;
14116;SDS011;7137;51.436;6.544;2023-06-26T10:05:30;6.17;;;2.63;;
14116;SDS011;7137;51.436;6.544;2023-06-26T10:08:31;6.33;;;2.80;;
14116;SDS011;7137;51.436;6.544;2023-06-26T10:11:36;6.60;;;2.63;;
14116;SDS011;7137;51.436;6.544;2023-06-26T10:14:42;5.87;;;2.57;;
14116;SDS011;7137;51.436;6.544;2023-06-26T10:17:44;4.77;;;2.60;;
14116;SDS011;7137;51.436;6.544;2023-06-26T10:20:49;4.77;;;2.80;;
14116;SDS011;7137;51.436;6.544;2023-06-26T10:23:55;5.57;;;2.77;;
14116;SDS011;7137;51.436;6.544;2023-06-26T10:26:59;4.13;;;1.80;;
14116;SDS011;7137;51.436;6.544;2023-06-26T10:30:06;5.10;;;1.90;;
14116;SDS011;7137;51.436;6.544;2023-06-26T10:33:13;4.90;;;2.10;;
14116;SDS011;7137;51.436;6.544;2023-06-26T10:36:17;5.27;;;2.20;;
14116;SDS011;7137;51.436;6.544;2023-06-26T10:39:19;3.63;;;1.90;;
14116;SDS011;7137;51.436;6.544;2023-06-26T10:42:37;4.47;;;2.10;;
14116;SDS011;7137;51.436;6.544;2023-06-26T10:45:43;3.33;;;1.70;;
14116;SDS011;7137;51.436;6.544;2023-06-26T10:48:55;3.27;;;1.70;;
14116;SDS011;7137;51.436;6.544;2023-06-26T10:52:01;4.30;;;1.50;;
14116;SDS011;7137;51.436;6.544;2023-06-26T10:55:03;5.93;;;1.90;;
14116;SDS011;7137;51.436;6.544;2023-06-26T10:58:05;4.47;;;1.90;;
14116;SDS011;7137;51.436;6.544;2023-06-26T11:01:35;3.10;;;1.40;;
14116;SDS011;7137;51.436;6.544;2023-06-26T11:04:43;4.80;;;1.53;;
14116;SDS011;7137;51.436;6.544;2023-06-26T11:11:08;5.37;;;1.60;;
14116;SDS011;7137;51.436;6.544;2023-06-26T11:14:10;3.50;;;1.50;;
14116;SDS011;7137;51.436;6.544;2023-06-26T11:17:12;4.13;;;1.47;;
14116;SDS011;7137;51.436;6.544;2023-06-26T11:20:16;4.90;;;1.30;;
14116;SDS011;7137;51.436;6.544;2023-06-26T11:23:22;4.63;;;1.50;;
14116;SDS011;7137;51.436;6.544;2023-06-26T11:26:25;3.33;;;1.30;;
14116;SDS011;7137;51.436;6.544;2023-06-26T11:29:27;4.70;;;1.40;;
14116;SDS011;7137;51.436;6.544;2023-06-26T11:32:29;5.83;;;1.60;;
14116;SDS011;7137;51.436;6.544;2023-06-26T11:35:32;4.93;;;1.40;;
14116;SDS011;7137;51.436;6.544;2023-06-26T11:38:38;4.63;;;1.13;;
14116;SDS011;7137;51.436;6.544;2023-06-26T11:41:40;3.30;;;0.97;;
14116;SDS011;7137;51.436;6.544;2023-06-26T11:44:42;3.47;;;1.20;;
14116;SDS011;7137;51.436;6.544;2023-06-26T11:47:44;4.37;;;1.10;;
14116;SDS011;7137;51.436;6.544;2023-06-26T11:50:46;1.97;;;1.13;;
14116;SDS011;7137;51.436;6.544;2023-06-26T11:53:52;3.47;;;0.90;;
14116;SDS011;7137;51.436;6.544;2023-06-26T11:56:54;6.03;;;1.50;;
14116;SDS011;7137;51.436;6.544;2023-06-26T12:00:09;3.60;;;1.20;;
14116;SDS011;7137;51.436;6.544;2023-06-26T12:03:12;3.63;;;1.10;;
14116;SDS011;7137;51.436;6.544;2023-06-26T12:06:13;5.97;;;1.07;;
14116;SDS011;7137;51.436;6.544;2023-06-26T12:09:18;3.67;;;1.20;;
14116;SDS011;7137;51.436;6.544;2023-06-26T12:12:20;3.17;;;1.10;;
14116;SDS011;7137;51.436;6.544;2023-06-26T12:15:22;3.67;;;1.10;;
14116;SDS011;7137;51.436;6.544;2023-06-26T12:18:24;3.43;;;1.10;;
14116;SDS011;7137;51.436;6.544;2023-06-26T12:21:43;3.27;;;1.07;;
14116;SDS011;7137;51.436;6.544;2023-06-26T12:24:49;2.97;;;1.00;;
14116;SDS011;7137;51.436;6.544;2023-06-26T12:27:51;3.60;;;1.20;;
14116;SDS011;7137;51.436;6.544;2023-06-26T12:34:13;3.50;;;1.13;;
14116;SDS011;7137;51.436;6.544;2023-06-26T12:37:19;3.27;;;1.10;;
14116;SDS011;7137;51.436;6.544;2023-06-26T12:40:22;4.37;;;1.10;;
14116;SDS011;7137;51.436;6.544;2023-06-26T12:43:25;5.00;;;1.17;;
14116;SDS011;7137;51.436;6.544;2023-06-26T12:46:34;2.93;;;1.10;;
14116;SDS011;7137;51.436;6.544;2023-06-26T12:49:36;3.10;;;1.20;;
14116;SDS011;7137;51.436;6.544;2023-06-26T12:52:39;4.27;;;1.27;;
14116;SDS011;7137;51.436;6.544;2023-06-26T12:55:41;2.80;;;1.07;;
14116;SDS011;7137;51.436;6.544;2023-06-26T12:58:43;3.47;;;1.03;;
14116;SDS011;7137;51.436;6.544;2023-06-26T13:01:45;4.57;;;1.10;;
14116;SDS011;7137;51.436;6.544;2023-06-26T13:04:46;4.73;;;1.30;;
14116;SDS011;7137;51.436;6.544;2023-06-26T13:07:48;2.50;;;1.17;;
14116;SDS011;7137;51.436;6.544;2023-06-26T13:10:51;4.60;;;1.37;;
14116;SDS011;7137;51.436;6.544;2023-06-26T13:13:53;2.53;;;1.00;;
14116;SDS011;7137;51.436;6.544;2023-06-26T13:16:54;6.87;;;1.40;;
14116;SDS011;7137;51.436;6.544;2023-06-26T13:19:56;5.57;;;1.33;;
14116;SDS011;7137;51.436;6.544;2023-06-26T13:22:58;3.03;;;1.20;;
14116;SDS011;7137;51.436;6.544;2023-06-26T13:26:01;5.33;;;1.30;;
14116;SDS011;7137;51.436;6.544;2023-06-26T13:29:03;4.60;;;1.20;;
14116;SDS011;7137;51.436;6.544;2023-06-26T13:32:05;3.03;;;1.20;;
14116;SDS011;7137;51.436;6.544;2023-06-26T13:35:07;4.50;;;1.20;;
14116;SDS011;7137;51.436;6.544;2023-06-26T13:38:09;4.23;;;1.23;;
14116;SDS011;7137;51.436;6.544;2023-06-26T13:41:12;3.33;;;1.20;;
14116;SDS011;7137;51.436;6.544;2023-06-26T13:44:14;3.33;;;1.30;;
14116;SDS011;7137;51.436;6.544;2023-06-26T13:47:16;3.53;;;1.10;;
14116;SDS011;7137;51.436;6.544;2023-06-26T13:50:17;3.73;;;1.20;;
14116;SDS011;7137;51.436;6.544;2023-06-26T13:53:19;2.40;;;1.03;;
14116;SDS011;7137;51.436;6.544;2023-06-26T13:56:22;3.60;;;1.00;;
14116;SDS011;7137;51.436;6.544;2023-06-26T13:59:24;4.00;;;1.20;;
14116;SDS011;7137;51.436;6.544;2023-06-26T14:02:27;3.37;;;1.20;;
14116;SDS011;7137;51.436;6.544;2023-06-26T14:05:29;2.80;;;1.17;;
14116;SDS011;7137;51.436;6.544;2023-06-26T14:08:30;2.13;;;1.00;;
14116;SDS011;7137;51.436;6.544;2023-06-26T14:11:34;3.53;;;1.30;;
14116;SDS011;7137;51.436;6.544;2023-06-26T14:14:35;3.10;;;1.10;;
14116;SDS011;7137;51.436;6.544;2023-06-26T14:17:37;4.27;;;1.33;;
14116;SDS011;7137;51.436;6.544;2023-06-26T14:20:40;5.60;;;1.20;;
14116;SDS011;7137;51.436;6.544;2023-06-26T14:23:41;1.87;;;1.07;;
14116;SDS011;7137;51.436;6.544;2023-06-26T14:26:48;2.77;;;1.17;;
14116;SDS011;7137;51.436;6.544;2023-06-26T14:29:50;2.63;;;1.00;;
14116;SDS011;7137;51.436;6.544;2023-06-26T14:32:51;5.30;;;1.20;;
14116;SDS011;7137;51.436;6.544;2023-06-26T14:35:53;3.03;;;1.10;;
14116;SDS011;7137;51.436;6.544;2023-06-26T14:38:54;3.23;;;1.20;;
14116;SDS011;7137;51.436;6.544;2023-06-26T14:41:57;1.20;;;0.87;;
14116;SDS011;7137;51.436;6.544;2023-06-26T14:44:59;3.03;;;1.10;;
14116;SDS011;7137;51.436;6.544;2023-06-26T14:48:01;1.83;;;0.80;;
14116;SDS011;7137;51.436;6.544;2023-06-26T14:51:02;3.37;;;1.50;;
14116;SDS011;7137;51.436;6.544;2023-06-26T14:54:04;1.97;;;1.03;;
14116;SDS011;7137;51.436;6.544;2023-06-26T14:57:08;3.73;;;1.20;;
14116;SDS011;7137;51.436;6.544;2023-06-26T15:00:11;2.77;;;1.10;;
14116;SDS011;7137;51.436;6.544;2023-06-26T15:03:13;2.13;;;1.00;;
14116;SDS011;7137;51.436;6.544;2023-06-26T15:06:15;3.20;;;1.03;;
14116;SDS011;7137;51.436;6.544;2023-06-26T15:09:16;2.93;;;1.10;;
14116;SDS011;7137;51.436;6.544;2023-06-26T15:12:19;3.77;;;1.10;;
14116;SDS011;7137;51.436;6.544;2023-06-26T15:15:23;2.57;;;1.27;;
14116;SDS011;7137;51.436;6.544;2023-06-26T15:18:25;2.90;;;1.20;;
14116;SDS011;7137;51.436;6.544;2023-06-26T15:21:27;3.27;;;1.00;;
14116;SDS011;7137;51.436;6.544;2023-06-26T15:24:28;2.57;;;0.90;;
14116;SDS011;7137;51.436;6.544;2023-06-26T15:27:31;2.03;;;1.00;;
14116;SDS011;7137;51.436;6.544;2023-06-26T15:30:33;2.17;;;1.00;;
14116;SDS011;7137;51.436;6.544;2023-06-26T15:33:34;4.60;;;1.20;;
14116;SDS011;7137;51.436;6.544;2023-06-26T15:36:36;2.93;;;1.07;;
14116;SDS011;7137;51.436;6.544;2023-06-26T15:39:37;1.90;;;0.80;;
14116;SDS011;7137;51.436;6.544;2023-06-26T15:42:46;2.40;;;1.00;;
14116;SDS011;7137;51.436;6.544;2023-06-26T15:45:49;3.37;;;1.10;;
14116;SDS011;7137;51.436;6.544;2023-06-26T15:48:50;1.70;;;0.90;;
14116;SDS011;7137;51.436;6.544;2023-06-26T15:51:52;1.70;;;0.80;;
14116;SDS011;7137;51.436;6.544;2023-06-26T15:54:53;1.77;;;0.97;;
14116;SDS011;7137;51.436;6.544;2023-06-26T15:57:56;3.87;;;1.00;;
14116;SDS011;7137;51.436;6.544;2023-06-26T16:01:00;3.33;;;1.00;;
14116;SDS011;7137;51.436;6.544;2023-06-26T16:04:01;2.33;;;0.80;;
14116;SDS011;7137;51.436;6.544;2023-06-26T16:07:03;2.40;;;0.90;;
14116;SDS011;7137;51.436;6.544;2023-06-26T16:10:06;2.00;;;0.93;;
14116;SDS011;7137;51.436;6.544;2023-06-26T16:13:09;3.77;;;1.10;;
14116;SDS011;7137;51.436;6.544;2023-06-26T16:16:11;3.27;;;1.27;;
14116;SDS011;7137;51.436;6.544;2023-06-26T16:19:13;2.87;;;1.23;;
14116;SDS011;7137;51.436;6.544;2023-06-26T16:22:14;2.33;;;1.20;;
14116;SDS011;7137;51.436;6.544;2023-06-26T16:25:16;3.67;;;1.20;;
14116;SDS011;7137;51.436;6.544;2023-06-26T16:28:19;4.37;;;1.07;;
14116;SDS011;7137;51.436;6.544;2023-06-26T16:31:20;3.33;;;1.30;;
14116;SDS011;7137;51.436;6.544;2023-06-26T16:34:22;3.93;;;1.20;;
14116;SDS011;7137;51.436;6.544;2023-06-26T16:37:24;2.67;;;1.13;;
14116;SDS011;7137;51.436;6.544;2023-06-26T16:40:26;4.10;;;1.13;;
14116;SDS011;7137;51.436;6.544;2023-06-26T16:43:29;4.10;;;1.17;;
14116;SDS011;7137;51.436;6.544;2023-06-26T16:46:31;2.83;;;1.20;;
14116;SDS011;7137;51.436;6.544;2023-06-26T16:49:32;3.93;;;1.30;;
14116;SDS011;7137;51.436;6.544;2023-06-26T16:52:34;2.60;;;1.10;;
14116;SDS011;7137;51.436;6.544;2023-06-26T16:55:35;3.57;;;1.40;;
14116;SDS011;7137;51.436;6.544;2023-06-26T16:58:38;3.50;;;1.13;;
14116;SDS011;7137;51.436;6.544;2023-06-26T17:01:40;4.23;;;1.30;;
14116;SDS011;7137;51.436;6.544;2023-06-26T17:04:41;5.37;;;1.57;;
14116;SDS011;7137;51.436;6.544;2023-06-26T17:07:43;3.53;;;1.83;;
14116;SDS011;7137;51.436;6.544;2023-06-26T17:10:44;3.93;;;1.30;;
14116;SDS011;7137;51.436;6.544;2023-06-26T17:13:47;3.30;;;1.13;;
14116;SDS011;7137;51.436;6.544;2023-06-26T17:16:49;4.13;;;1.20;;
14116;SDS011;7137;51.436;6.544;2023-06-26T17:19:51;3.30;;;1.43;;
14116;SDS011;7137;51.436;6.544;2023-06-26T17:22:53;2.80;;;1.20;;
14116;SDS011;7137;51.436;6.544;2023-06-26T17:25:54;2.57;;;1.20;;
14116;SDS011;7137;51.436;6.544;2023-06-26T17:28:58;5.50;;;1.70;;
14116;SDS011;7137;51.436;6.544;2023-06-26T17:32:00;3.07;;;1.30;;
14116;SDS011;7137;51.436;6.544;2023-06-26T17:35:02;3.70;;;1.40;;
14116;SDS011;7137;51.436;6.544;2023-06-26T17:38:07;4.13;;;1.40;;
14116;SDS011;7137;51.436;6.544;2023-06-26T17:41:09;3.60;;;1.23;;
14116;SDS011;7137;51.436;6.544;2023-06-26T17:44:12;3.07;;;1.30;;
14116;SDS011;7137;51.436;6.544;2023-06-26T17:47:14;3.93;;;1.30;;
14116;SDS011;7137;51.436;6.544;2023-06-26T17:50:15;4.13;;;1.20;;
14116;SDS011;7137;51.436;6.544;2023-06-26T17:53:17;3.93;;;1.30;;
14116;SDS011;7137;51.436;6.544;2023-06-26T17:56:19;3.70;;;1.43;;
14116;SDS011;7137;51.436;6.544;2023-06-26T17:59:22;4.27;;;1.50;;
14116;SDS011;7137;51.436;6.544;2023-06-26T18:02:23;4.43;;;1.40;;
14116;SDS011;7137;51.436;6.544;2023-06-26T18:05:25;4.43;;;1.20;;
14116;SDS011;7137;51.436;6.544;2023-06-26T18:08:27;6.13;;;1.30;;
14116;SDS011;7137;51.436;6.544;2023-06-26T18:11:29;3.67;;;1.20;;
14116;SDS011;7137;51.436;6.544;2023-06-26T18:14:32;3.17;;;1.10;;
14116;SDS011;7137;51.436;6.544;2023-06-26T18:17:34;3.77;;;1.30;;
14116;SDS011;7137;51.436;6.544;2023-06-26T18:20:36;3.37;;;1.20;;
14116;SDS011;7137;51.436;6.544;2023-06-26T18:23:38;3.37;;;1.30;;
14116;SDS011;7137;51.436;6.544;2023-06-26T18:26:39;2.80;;;1.00;;
14116;SDS011;7137;51.436;6.544;2023-06-26T18:29:42;4.37;;;1.13;;
14116;SDS011;7137;51.436;6.544;2023-06-26T18:32:45;3.40;;;1.30;;
14116;SDS011;7137;51.436;6.544;2023-06-26T18:35:46;4.17;;;1.20;;
14116;SDS011;7137;51.436;6.544;2023-06-26T18:38:48;3.17;;;1.10;;
14116;SDS011;7137;51.436;6.544;2023-06-26T18:41:50;3.73;;;1.20;;
14116;SDS011;7137;51.436;6.544;2023-06-26T18:44:53;5.17;;;1.40;;